Time,TemperatureF,DewpointF,PressureIn,WindDirection,WindDirectionDegrees,WindSpeedMPH,WindSpeedGustMPH,Humidity,HourlyPrecipIn,Conditions,Clouds,dailyrainin,SoftwareType,DateUTC
2013-07-25 00:02:00,52.0,47.0,27.81,West,266,1.0,6.0,82,0.00,,,0.01,,2013-07-25 04:02:00,
2013-07-25 00:12:00,52.0,47.0,27.81,West,266,1.0,6.0,82,0.00,,,0.01,,2013-07-25 04:12:00,
2013-07-25 00:43:00,51.0,46.0,27.81,West,267,1.0,2.0,82,0.00,,,0.01,,2013-07-25 04:43:00,
2013-07-25 00:53:00,51.0,46.0,27.82,West,269,0.0,4.0,84,0.00,,,0.01,,2013-07-25 04:53:00,
2013-07-25 01:02:00,51.0,46.0,27.82,West,269,0.0,4.0,84,0.00,,,0.01,,2013-07-25 05:02:00,
2013-07-25 01:12:00,50.0,45.0,27.82,West,259,1.0,2.0,84,0.00,,,0.01,,2013-07-25 05:12:00,
2013-07-25 01:43:00,50.0,46.0,27.82,West,276,1.0,2.0,85,0.00,,,0.01,,2013-07-25 05:43:00,
2013-07-25 01:52:00,50.0,46.0,27.82,SW,236,0.0,4.0,86,0.00,,,0.01,,2013-07-25 05:52:00,
2013-07-25 02:12:00,50.0,46.0,27.81,SW,215,1.0,3.0,87,0.00,,,0.01,,2013-07-25 06:12:00,
2013-07-25 02:22:00,49.0,46.0,27.81,SW,228,1.0,2.0,89,0.00,,,0.01,,2013-07-25 06:22:00,
2013-07-25 02:32:00,49.0,46.0,27.81,SW,228,1.0,2.0,89,0.00,,,0.01,,2013-07-25 06:32:00,
2013-07-25 02:42:00,49.0,46.0,27.81,West,278,1.0,4.0,88,0.00,,,0.01,,2013-07-25 06:42:00,
2013-07-25 02:52:00,49.0,46.0,27.81,WSW,246,1.0,2.0,89,0.00,,,0.01,,2013-07-25 06:52:00,
2013-07-25 03:02:00,49.0,46.0,27.81,WSW,249,1.0,3.0,88,0.00,,,0.01,,2013-07-25 07:02:00,
2013-07-25 03:12:00,49.0,46.0,27.81,WSW,249,1.0,3.0,88,0.00,,,0.01,,2013-07-25 07:12:00,
2013-07-25 03:22:00,50.0,46.0,27.80,West,281,2.0,4.0,87,0.00,,,0.01,,2013-07-25 07:22:00,
2013-07-25 03:43:00,50.0,46.0,27.81,WSW,243,1.0,4.0,87,0.00,,,0.01,,2013-07-25 07:43:00,
2013-07-25 03:53:00,49.0,46.0,27.80,WSW,248,2.0,4.0,88,0.00,,,0.01,,2013-07-25 07:53:00,
2013-07-25 04:02:00,49.0,46.0,27.81,West,269,1.0,3.0,88,0.00,,,0.01,,2013-07-25 08:02:00,
2013-07-25 04:12:00,49.0,46.0,27.81,West,269,1.0,3.0,88,0.00,,,0.01,,2013-07-25 08:12:00,
2013-07-25 04:44:00,49.0,46.0,27.82,WSW,243,1.0,2.0,89,0.00,,,0.01,,2013-07-25 08:44:00,
2013-07-25 04:52:00,48.0,45.0,27.82,WNW,285,2.0,6.0,91,0.00,,,0.01,,2013-07-25 08:52:00,
2013-07-25 05:02:00,48.0,45.0,27.82,West,267,1.0,2.0,91,0.00,,,0.01,,2013-07-25 09:02:00,
2013-07-25 05:12:00,48.0,45.0,27.82,West,267,1.0,2.0,91,0.00,,,0.01,,2013-07-25 09:12:00,
2013-07-25 05:22:00,48.0,45.0,27.83,WSW,248,0.0,1.0,91,0.00,,,0.01,,2013-07-25 09:22:00,
2013-07-25 05:33:00,48.0,45.0,27.83,WSW,248,0.0,1.0,91,0.00,,,0.01,,2013-07-25 09:33:00,
2013-07-25 05:43:00,48.0,45.0,27.84,WSW,249,1.0,1.0,91,0.00,,,0.01,,2013-07-25 09:43:00,
2013-07-25 05:53:00,47.0,45.0,27.83,WSW,248,0.0,1.0,92,0.00,,,0.01,,2013-07-25 09:53:00,
2013-07-25 06:03:00,47.0,45.0,27.84,WSW,249,1.0,1.0,93,0.00,,,0.01,,2013-07-25 10:03:00,
2013-07-25 06:12:00,47.0,45.0,27.84,WSW,249,1.0,1.0,93,0.00,,,0.01,,2013-07-25 10:12:00,
2013-07-25 06:42:00,49.0,47.0,27.84,West,270,1.0,2.0,92,0.00,,,0.00,,2013-07-25 10:42:00,
2013-07-25 06:53:00,51.0,48.0,27.85,WSW,245,1.0,2.0,89,0.00,,,0.00,,2013-07-25 10:53:00,
2013-07-25 07:02:00,51.0,48.0,27.85,WSW,245,1.0,2.0,89,0.00,,,0.00,,2013-07-25 11:02:00,
2013-07-25 07:12:00,52.0,48.0,27.86,WSW,246,0.0,1.0,87,0.00,,,0.00,,2013-07-25 11:12:00,
2013-07-25 07:22:00,53.0,48.0,27.86,WSW,242,1.0,2.0,84,0.00,,,0.00,,2013-07-25 11:22:00,
2013-07-25 08:32:00,56.0,50.0,27.87,SE,132,2.0,6.0,79,0.00,,,0.00,,2013-07-25 12:32:00,
2013-07-25 10:02:00,61.0,50.0,27.89,ENE,70,0.0,3.0,68,0.00,,,0.00,,2013-07-25 14:02:00,
2013-07-25 10:12:00,62.0,51.0,27.89,SE,131,2.0,3.0,66,0.00,,,0.00,,2013-07-25 14:12:00,
2013-07-25 10:33:00,62.0,52.0,27.90,WSW,248,0.0,2.0,69,0.00,,,0.00,,2013-07-25 14:33:00,
2013-07-25 10:43:00,63.0,52.0,27.90,SW,228,2.0,5.0,68,0.00,,,0.00,,2013-07-25 14:43:00,
2013-07-25 10:53:00,63.0,52.0,27.89,SW,231,1.0,2.0,68,0.00,,,0.00,,2013-07-25 14:53:00,
2013-07-25 11:02:00,63.0,51.0,27.90,ESE,120,2.0,6.0,66,0.00,,,0.00,,2013-07-25 15:02:00,
2013-07-25 11:12:00,63.0,51.0,27.90,ESE,120,2.0,6.0,66,0.00,,,0.00,,2013-07-25 15:12:00,
2013-07-25 12:33:00,66.0,52.0,27.90,East,87,3.0,6.0,61,0.00,,,0.00,,2013-07-25 16:33:00,
2013-07-25 12:45:00,67.0,54.0,27.90,SSW,207,2.0,5.0,63,0.00,,,0.00,,2013-07-25 16:45:00,
2013-07-25 12:53:00,67.0,53.0,27.90,WNW,293,0.0,3.0,60,0.00,,,0.00,,2013-07-25 16:53:00,
2013-07-25 13:03:00,67.0,53.0,27.90,WNW,293,0.0,3.0,60,0.00,,,0.00,,2013-07-25 17:03:00,
2013-07-25 13:12:00,67.0,53.0,27.89,SE,127,2.0,6.0,61,0.00,,,0.00,,2013-07-25 17:12:00,
2013-07-25 13:32:00,69.0,55.0,27.89,NW,319,1.0,5.0,61,0.00,,,0.00,,2013-07-25 17:32:00,
2013-07-25 13:43:00,70.0,55.0,27.89,WNW,295,3.0,4.0,58,0.00,,,0.00,,2013-07-25 17:43:00,
2013-07-25 13:53:00,69.0,55.0,27.89,East,92,1.0,6.0,60,0.00,,,0.00,,2013-07-25 17:53:00,
2013-07-25 14:02:00,69.0,55.0,27.89,East,92,1.0,6.0,60,0.00,,,0.00,,2013-07-25 18:02:00,
2013-07-25 14:12:00,70.0,56.0,27.89,West,264,4.0,5.0,62,0.00,,,0.00,,2013-07-25 18:12:00,
2013-07-25 14:22:00,72.0,57.0,27.89,WSW,252,1.0,2.0,59,0.00,,,0.00,,2013-07-25 18:22:00,
2013-07-25 14:33:00,72.0,57.0,27.89,WSW,252,1.0,2.0,59,0.00,,,0.00,,2013-07-25 18:33:00,
2013-07-25 14:43:00,72.0,57.0,27.89,WSW,252,1.0,2.0,59,0.00,,,0.00,,2013-07-25 18:43:00,
2013-07-25 14:52:00,70.0,55.0,27.89,WSW,249,0.0,6.0,58,0.00,,,0.00,,2013-07-25 18:52:00,
2013-07-25 15:12:00,70.0,57.0,27.89,SE,124,1.0,3.0,64,0.00,,,0.00,,2013-07-25 19:12:00,
2013-07-25 15:33:00,70.0,57.0,27.88,East,100,1.0,6.0,63,0.00,,,0.00,,2013-07-25 19:33:00,
2013-07-25 15:43:00,70.0,57.0,27.88,East,100,1.0,6.0,63,0.00,,,0.00,,2013-07-25 19:43:00,
2013-07-25 15:53:00,71.0,56.0,27.88,SSE,149,1.0,2.0,60,0.00,,,0.00,,2013-07-25 19:53:00,
2013-07-25 16:03:00,70.0,57.0,27.88,SE,130,1.0,4.0,64,0.00,,,0.00,,2013-07-25 20:03:00,
2013-07-25 16:12:00,70.0,57.0,27.88,SE,130,1.0,4.0,64,0.00,,,0.00,,2013-07-25 20:12:00,
2013-07-25 16:22:00,70.0,57.0,27.88,SE,130,1.0,4.0,64,0.00,,,0.00,,2013-07-25 20:22:00,
2013-07-25 16:32:00,70.0,57.0,27.88,SE,130,1.0,4.0,64,0.00,,,0.00,,2013-07-25 20:32:00,
2013-07-25 16:43:00,70.0,57.0,27.88,SE,130,1.0,4.0,64,0.00,,,0.00,,2013-07-25 20:43:00,
2013-07-25 17:03:00,69.0,58.0,27.88,East,80,1.0,4.0,68,0.00,,,0.00,,2013-07-25 21:03:00,
2013-07-25 17:13:00,69.0,58.0,27.88,East,80,1.0,4.0,68,0.00,,,0.00,,2013-07-25 21:13:00,
2013-07-25 17:33:00,69.0,57.0,27.89,SE,139,2.0,4.0,65,0.00,,,0.00,,2013-07-25 21:33:00,
2013-07-25 17:44:00,69.0,57.0,27.89,ESE,105,2.0,3.0,65,0.00,,,0.00,,2013-07-25 21:44:00,
2013-07-25 17:52:00,69.0,60.0,27.89,ESE,114,1.0,3.0,72,0.00,,,0.00,,2013-07-25 21:52:00,
2013-07-25 18:12:00,68.0,58.0,27.89,East,98,1.0,2.0,70,0.00,,,0.00,,2013-07-25 22:12:00,
2013-07-25 18:22:00,68.0,58.0,27.89,East,98,1.0,2.0,70,0.00,,,0.00,,2013-07-25 22:22:00,
2013-07-25 18:32:00,67.0,58.0,27.88,East,96,0.0,0.0,74,0.00,,,0.00,,2013-07-25 22:32:00,
2013-07-25 18:43:00,67.0,58.0,27.88,East,96,0.0,0.0,74,0.00,,,0.00,,2013-07-25 22:43:00,
2013-07-25 18:53:00,67.0,58.0,27.88,East,96,0.0,0.0,74,0.00,,,0.00,,2013-07-25 22:53:00,
2013-07-25 19:12:00,67.0,60.0,27.89,ESE,104,0.0,1.0,77,0.00,,,0.00,,2013-07-25 23:12:00,
2013-07-25 19:22:00,66.0,60.0,27.89,ESE,105,0.0,1.0,80,0.00,,,0.00,,2013-07-25 23:22:00,
2013-07-25 19:32:00,66.0,60.0,27.89,ESE,105,0.0,1.0,80,0.00,,,0.00,,2013-07-25 23:32:00,
2013-07-25 19:43:00,66.0,60.0,27.89,ESE,105,0.0,1.0,80,0.00,,,0.00,,2013-07-25 23:43:00,
2013-07-25 19:52:00,64.0,59.0,27.90,ESE,105,1.0,1.0,84,0.00,,,0.00,,2013-07-25 23:52:00,
2013-07-25 20:02:00,64.0,59.0,27.90,ESE,105,0.0,0.0,85,0.00,,,0.00,,2013-07-26 00:02:00,
2013-07-25 20:33:00,64.0,60.0,27.90,ESE,105,0.0,1.0,86,0.00,,,0.00,,2013-07-26 00:33:00,
2013-07-25 20:43:00,64.0,60.0,27.90,ESE,105,0.0,1.0,86,0.00,,,0.00,,2013-07-26 00:43:00,
2013-07-25 20:52:00,63.0,58.0,27.90,ESE,105,0.0,1.0,85,0.00,,,0.00,,2013-07-26 00:52:00,
2013-07-25 21:02:00,63.0,59.0,27.90,ESE,105,0.0,0.0,86,0.00,,,0.00,,2013-07-26 01:02:00,
2013-07-25 21:12:00,63.0,59.0,27.90,ESE,105,0.0,0.0,86,0.00,,,0.00,,2013-07-26 01:12:00,
2013-07-25 21:33:00,63.0,59.0,27.90,ESE,105,0.0,1.0,87,0.00,,,0.00,,2013-07-26 01:33:00,
2013-07-25 21:43:00,63.0,59.0,27.90,ESE,105,0.0,1.0,87,0.00,,,0.00,,2013-07-26 01:43:00,
2013-07-25 21:52:00,62.0,58.0,27.91,ESE,105,1.0,1.0,87,0.00,,,0.00,,2013-07-26 01:52:00,
2013-07-25 22:02:00,62.0,58.0,27.90,ESE,105,0.0,0.0,87,0.00,,,0.00,,2013-07-26 02:02:00,
2013-07-25 22:12:00,62.0,58.0,27.90,ESE,105,0.0,0.0,87,0.00,,,0.00,,2013-07-26 02:12:00,
2013-07-25 22:32:00,62.0,58.0,27.90,ESE,105,0.0,0.0,88,0.00,,,0.00,,2013-07-26 02:32:00,
2013-07-25 22:43:00,62.0,59.0,27.90,ESE,105,0.0,0.0,89,0.00,,,0.00,,2013-07-26 02:43:00,
2013-07-25 22:52:00,61.0,58.0,27.90,ESE,106,0.0,1.0,89,0.00,,,0.00,,2013-07-26 02:52:00,
2013-07-25 23:02:00,61.0,58.0,27.90,ESE,106,0.0,1.0,89,0.00,,,0.00,,2013-07-26 03:02:00,
2013-07-25 23:12:00,61.0,58.0,27.89,ESE,105,1.0,1.0,89,0.00,,,0.00,,2013-07-26 03:12:00,
2013-07-25 23:22:00,61.0,58.0,27.89,ESE,105,1.0,1.0,89,0.00,,,0.00,,2013-07-26 03:22:00,
2013-07-25 23:44:00,61.0,58.0,27.90,West,271,0.0,1.0,91,0.00,,,0.00,,2013-07-26 03:44:00,
2013-07-25 23:53:00,60.0,57.0,27.90,West,271,0.0,0.0,91,0.00,,,0.00,,2013-07-26 03:53:00,